sensor_id;sensor_type;location;lat;lon;timestamp;P1;durP1;ratioP1;P2;durP2;ratioP2
33453;SDS011;39400;49.744;7.012;2023-04-21T00:00:02;14.38;;;10.57;;
33453;SDS011;39400;49.744;7.012;2023-04-21T00:02:32;14.43;;;10.50;;
33453;SDS011;39400;49.744;7.012;2023-04-21T00:04:57;18.73;;;11.73;;
33453;SDS011;39400;49.744;7.012;2023-04-21T00:07:24;16.35;;;12.15;;
33453;SDS011;39400;49.744;7.012;2023-04-21T00:09:49;15.82;;;11.23;;
33453;SDS011;39400;49.744;7.012;2023-04-21T00:12:14;16.48;;;12.40;;
33453;SDS011;39400;49.744;7.012;2023-04-21T00:14:39;17.25;;;12.00;;
33453;SDS011;39400;49.744;7.012;2023-04-21T00:17:05;14.70;;;10.98;;
33453;SDS011;39400;49.744;7.012;2023-04-21T00:19:30;13.95;;;10.77;;
33453;SDS011;39400;49.744;7.012;2023-04-21T00:21:56;17.08;;;11.95;;
33453;SDS011;39400;49.744;7.012;2023-04-21T00:24:22;13.65;;;11.15;;
33453;SDS011;39400;49.744;7.012;2023-04-21T00:26:47;15.55;;;10.85;;
33453;SDS011;39400;49.744;7.012;2023-04-21T00:29:12;14.30;;;10.15;;
33453;SDS011;39400;49.744;7.012;2023-04-21T00:31:38;13.55;;;9.98;;
33453;SDS011;39400;49.744;7.012;2023-04-21T00:34:03;13.25;;;10.48;;
33453;SDS011;39400;49.744;7.012;2023-04-21T00:36:28;13.52;;;9.82;;
33453;SDS011;39400;49.744;7.012;2023-04-21T00:38:54;12.63;;;10.07;;
33453;SDS011;39400;49.744;7.012;2023-04-21T00:41:19;15.35;;;11.45;;
33453;SDS011;39400;49.744;7.012;2023-04-21T00:46:32;15.68;;;12.13;;
33453;SDS011;39400;49.744;7.012;2023-04-21T00:48:58;16.05;;;11.25;;
33453;SDS011;39400;49.744;7.012;2023-04-21T00:51:27;14.50;;;11.20;;
33453;SDS011;39400;49.744;7.012;2023-04-21T00:53:53;16.23;;;12.40;;
33453;SDS011;39400;49.744;7.012;2023-04-21T00:56:19;16.60;;;12.73;;
33453;SDS011;39400;49.744;7.012;2023-04-21T00:58:46;17.73;;;12.77;;
33453;SDS011;39400;49.744;7.012;2023-04-21T01:01:12;15.88;;;12.13;;
33453;SDS011;39400;49.744;7.012;2023-04-21T01:03:38;15.65;;;11.25;;
33453;SDS011;39400;49.744;7.012;2023-04-21T01:06:03;18.42;;;12.85;;
33453;SDS011;39400;49.744;7.012;2023-04-21T01:08:29;19.15;;;12.63;;
33453;SDS011;39400;49.744;7.012;2023-04-21T01:10:55;17.88;;;13.00;;
33453;SDS011;39400;49.744;7.012;2023-04-21T01:13:20;16.48;;;12.20;;
33453;SDS011;39400;49.744;7.012;2023-04-21T01:15:45;17.25;;;13.23;;
33453;SDS011;39400;49.744;7.012;2023-04-21T01:18:11;18.67;;;12.40;;
33453;SDS011;39400;49.744;7.012;2023-04-21T01:20:38;16.77;;;13.00;;
33453;SDS011;39400;49.744;7.012;2023-04-21T01:23:04;17.88;;;13.60;;
33453;SDS011;39400;49.744;7.012;2023-04-21T01:25:30;16.27;;;12.45;;
33453;SDS011;39400;49.744;7.012;2023-04-21T01:27:55;18.02;;;13.38;;
33453;SDS011;39400;49.744;7.012;2023-04-21T01:30:20;19.13;;;14.43;;
33453;SDS011;39400;49.744;7.012;2023-04-21T01:32:46;17.80;;;13.35;;
33453;SDS011;39400;49.744;7.012;2023-04-21T01:35:11;21.90;;;14.43;;
33453;SDS011;39400;49.744;7.012;2023-04-21T01:37:37;18.52;;;13.13;;
33453;SDS011;39400;49.744;7.012;2023-04-21T01:40:04;13.90;;;11.48;;
33453;SDS011;39400;49.744;7.012;2023-04-21T01:42:32;19.92;;;14.23;;
33453;SDS011;39400;49.744;7.012;2023-04-21T01:45:00;17.92;;;13.65;;
33453;SDS011;39400;49.744;7.012;2023-04-21T01:47:26;17.80;;;14.10;;
33453;SDS011;39400;49.744;7.012;2023-04-21T01:49:51;19.40;;;14.95;;
33453;SDS011;39400;49.744;7.012;2023-04-21T01:52:17;16.83;;;12.52;;
33453;SDS011;39400;49.744;7.012;2023-04-21T01:54:44;15.40;;;11.90;;
33453;SDS011;39400;49.744;7.012;2023-04-21T01:57:09;16.92;;;11.60;;
33453;SDS011;39400;49.744;7.012;2023-04-21T01:59:35;16.08;;;11.85;;
33453;SDS011;39400;49.744;7.012;2023-04-21T02:02:01;15.38;;;12.13;;
33453;SDS011;39400;49.744;7.012;2023-04-21T02:04:27;18.20;;;13.05;;
33453;SDS011;39400;49.744;7.012;2023-04-21T02:06:52;15.98;;;12.25;;
33453;SDS011;39400;49.744;7.012;2023-04-21T02:09:17;16.70;;;12.02;;
33453;SDS011;39400;49.744;7.012;2023-04-21T02:11:43;15.88;;;12.05;;
33453;SDS011;39400;49.744;7.012;2023-04-21T02:14:09;16.83;;;11.95;;
33453;SDS011;39400;49.744;7.012;2023-04-21T02:16:34;16.63;;;13.20;;
33453;SDS011;39400;49.744;7.012;2023-04-21T02:19:00;16.65;;;12.27;;
33453;SDS011;39400;49.744;7.012;2023-04-21T02:21:26;17.15;;;12.40;;
33453;SDS011;39400;49.744;7.012;2023-04-21T02:23:51;16.60;;;11.98;;
33453;SDS011;39400;49.744;7.012;2023-04-21T02:26:17;18.38;;;12.68;;
33453;SDS011;39400;49.744;7.012;2023-04-21T02:28:43;20.45;;;14.43;;
33453;SDS011;39400;49.744;7.012;2023-04-21T02:31:08;18.55;;;13.27;;
33453;SDS011;39400;49.744;7.012;2023-04-21T02:33:34;18.65;;;13.07;;
33453;SDS011;39400;49.744;7.012;2023-04-21T02:36:00;19.98;;;14.52;;
33453;SDS011;39400;49.744;7.012;2023-04-21T02:38:25;16.35;;;12.38;;
33453;SDS011;39400;49.744;7.012;2023-04-21T02:40:50;16.17;;;11.65;;
33453;SDS011;39400;49.744;7.012;2023-04-21T02:43:17;17.25;;;12.63;;
33453;SDS011;39400;49.744;7.012;2023-04-21T02:45:42;20.13;;;13.57;;
33453;SDS011;39400;49.744;7.012;2023-04-21T02:48:08;18.70;;;13.35;;
33453;SDS011;39400;49.744;7.012;2023-04-21T02:50:33;16.73;;;11.90;;
33453;SDS011;39400;49.744;7.012;2023-04-21T02:52:59;14.50;;;11.10;;
33453;SDS011;39400;49.744;7.012;2023-04-21T02:55:24;14.90;;;11.27;;
33453;SDS011;39400;49.744;7.012;2023-04-21T02:57:50;15.20;;;10.95;;
33453;SDS011;39400;49.744;7.012;2023-04-21T03:00:15;15.43;;;11.05;;
33453;SDS011;39400;49.744;7.012;2023-04-21T03:02:41;14.57;;;10.77;;
33453;SDS011;39400;49.744;7.012;2023-04-21T03:05:07;14.85;;;11.20;;
33453;SDS011;39400;49.744;7.012;2023-04-21T03:07:33;13.15;;;9.57;;
33453;SDS011;39400;49.744;7.012;2023-04-21T03:09:58;16.75;;;11.95;;
33453;SDS011;39400;49.744;7.012;2023-04-21T03:12:25;16.38;;;11.98;;
33453;SDS011;39400;49.744;7.012;2023-04-21T03:14:50;15.52;;;12.20;;
33453;SDS011;39400;49.744;7.012;2023-04-21T03:17:16;16.83;;;12.30;;
33453;SDS011;39400;49.744;7.012;2023-04-21T03:19:41;20.30;;;12.98;;
33453;SDS011;39400;49.744;7.012;2023-04-21T03:22:06;15.85;;;11.75;;
33453;SDS011;39400;49.744;7.012;2023-04-21T03:24:32;16.60;;;11.98;;
33453;SDS011;39400;49.744;7.012;2023-04-21T03:26:58;16.45;;;12.57;;
33453;SDS011;39400;49.744;7.012;2023-04-21T03:29:23;15.88;;;11.48;;
33453;SDS011;39400;49.744;7.012;2023-04-21T03:31:48;15.15;;;11.10;;
33453;SDS011;39400;49.744;7.012;2023-04-21T03:34:14;16.55;;;10.85;;
33453;SDS011;39400;49.744;7.012;2023-04-21T03:36:40;14.98;;;11.32;;
33453;SDS011;39400;49.744;7.012;2023-04-21T03:39:06;16.42;;;11.20;;
33453;SDS011;39400;49.744;7.012;2023-04-21T03:41:34;13.82;;;9.73;;
33453;SDS011;39400;49.744;7.012;2023-04-21T03:44:01;15.23;;;10.57;;
33453;SDS011;39400;49.744;7.012;2023-04-21T03:46:27;18.63;;;12.70;;
33453;SDS011;39400;49.744;7.012;2023-04-21T03:48:52;16.33;;;12.20;;
33453;SDS011;39400;49.744;7.012;2023-04-21T03:51:17;16.30;;;11.63;;
33453;SDS011;39400;49.744;7.012;2023-04-21T03:53:43;16.85;;;10.98;;
33453;SDS011;39400;49.744;7.012;2023-04-21T03:56:08;17.48;;;10.95;;
33453;SDS011;39400;49.744;7.012;2023-04-21T03:58:34;16.75;;;12.00;;
33453;SDS011;39400;49.744;7.012;2023-04-21T04:01:00;16.98;;;12.30;;
33453;SDS011;39400;49.744;7.012;2023-04-21T04:03:25;15.88;;;10.77;;
33453;SDS011;39400;49.744;7.012;2023-04-21T04:05:50;14.00;;;9.45;;
33453;SDS011;39400;49.744;7.012;2023-04-21T04:08:16;14.73;;;10.32;;
33453;SDS011;39400;49.744;7.012;2023-04-21T04:10:41;14.45;;;10.68;;
33453;SDS011;39400;49.744;7.012;2023-04-21T04:13:06;16.48;;;12.15;;
33453;SDS011;39400;49.744;7.012;2023-04-21T04:15:32;15.25;;;11.70;;
33453;SDS011;39400;49.744;7.012;2023-04-21T04:17:57;17.95;;;12.45;;
33453;SDS011;39400;49.744;7.012;2023-04-21T04:20:22;17.50;;;13.07;;
33453;SDS011;39400;49.744;7.012;2023-04-21T04:22:48;18.30;;;13.05;;
33453;SDS011;39400;49.744;7.012;2023-04-21T04:25:13;15.80;;;12.20;;
33453;SDS011;39400;49.744;7.012;2023-04-21T04:27:39;16.58;;;10.82;;
33453;SDS011;39400;49.744;7.012;2023-04-21T04:30:04;12.68;;;9.80;;
33453;SDS011;39400;49.744;7.012;2023-04-21T04:32:31;13.30;;;8.75;;
33453;SDS011;39400;49.744;7.012;2023-04-21T04:34:56;15.07;;;10.73;;
33453;SDS011;39400;49.744;7.012;2023-04-21T04:37:22;15.52;;;11.20;;
33453;SDS011;39400;49.744;7.012;2023-04-21T04:39:47;15.10;;;11.52;;
33453;SDS011;39400;49.744;7.012;2023-04-21T04:42:12;16.27;;;12.20;;
33453;SDS011;39400;49.744;7.012;2023-04-21T04:44:38;14.90;;;11.18;;
33453;SDS011;39400;49.744;7.012;2023-04-21T04:47:03;13.60;;;9.75;;
33453;SDS011;39400;49.744;7.012;2023-04-21T04:49:28;13.63;;;10.07;;
33453;SDS011;39400;49.744;7.012;2023-04-21T04:51:54;13.38;;;10.05;;
33453;SDS011;39400;49.744;7.012;2023-04-21T04:54:19;14.02;;;10.88;;
33453;SDS011;39400;49.744;7.012;2023-04-21T04:56:44;16.40;;;10.48;;
33453;SDS011;39400;49.744;7.012;2023-04-21T04:59:10;12.68;;;9.45;;
33453;SDS011;39400;49.744;7.012;2023-04-21T05:01:35;13.13;;;8.93;;
33453;SDS011;39400;49.744;7.012;2023-04-21T05:04:01;13.70;;;9.55;;
33453;SDS011;39400;49.744;7.012;2023-04-21T05:06:26;12.90;;;8.35;;
33453;SDS011;39400;49.744;7.012;2023-04-21T05:08:52;10.95;;;7.47;;
33453;SDS011;39400;49.744;7.012;2023-04-21T05:11:17;11.57;;;8.60;;
33453;SDS011;39400;49.744;7.012;2023-04-21T05:13:42;11.23;;;8.38;;
33453;SDS011;39400;49.744;7.012;2023-04-21T05:16:08;11.82;;;9.05;;
33453;SDS011;39400;49.744;7.012;2023-04-21T05:18:33;21.02;;;14.45;;
33453;SDS011;39400;49.744;7.012;2023-04-21T05:20:58;25.95;;;10.43;;
33453;SDS011;39400;49.744;7.012;2023-04-21T05:23:23;13.45;;;10.15;;
33453;SDS011;39400;49.744;7.012;2023-04-21T05:25:49;13.63;;;9.75;;
33453;SDS011;39400;49.744;7.012;2023-04-21T05:28:14;14.02;;;10.32;;
33453;SDS011;39400;49.744;7.012;2023-04-21T05:30:40;14.23;;;10.55;;
33453;SDS011;39400;49.744;7.012;2023-04-21T05:33:05;12.32;;;8.85;;
33453;SDS011;39400;49.744;7.012;2023-04-21T05:35:31;13.50;;;9.63;;
33453;SDS011;39400;49.744;7.012;2023-04-21T05:37:56;12.88;;;8.82;;
33453;SDS011;39400;49.744;7.012;2023-04-21T05:40:22;12.02;;;9.00;;
33453;SDS011;39400;49.744;7.012;2023-04-21T05:42:47;13.65;;;9.18;;
33453;SDS011;39400;49.744;7.012;2023-04-21T05:45:12;14.15;;;9.98;;
33453;SDS011;39400;49.744;7.012;2023-04-21T05:47:38;12.10;;;9.57;;
33453;SDS011;39400;49.744;7.012;2023-04-21T05:50:04;12.63;;;9.57;;
33453;SDS011;39400;49.744;7.012;2023-04-21T05:52:30;13.32;;;9.95;;
33453;SDS011;39400;49.744;7.012;2023-04-21T05:54:56;12.07;;;8.98;;
33453;SDS011;39400;49.744;7.012;2023-04-21T05:57:22;12.63;;;8.32;;
33453;SDS011;39400;49.744;7.012;2023-04-21T05:59:47;13.25;;;9.45;;
33453;SDS011;39400;49.744;7.012;2023-04-21T06:02:12;13.20;;;9.55;;
33453;SDS011;39400;49.744;7.012;2023-04-21T06:04:38;14.85;;;9.50;;
33453;SDS011;39400;49.744;7.012;2023-04-21T06:07:04;13.57;;;9.35;;
33453;SDS011;39400;49.744;7.012;2023-04-21T06:09:33;11.82;;;8.95;;
33453;SDS011;39400;49.744;7.012;2023-04-21T06:11:58;12.57;;;9.82;;
33453;SDS011;39400;49.744;7.012;2023-04-21T06:14:24;13.63;;;10.05;;
33453;SDS011;39400;49.744;7.012;2023-04-21T06:16:49;12.85;;;9.52;;
33453;SDS011;39400;49.744;7.012;2023-04-21T06:19:14;12.90;;;9.57;;
33453;SDS011;39400;49.744;7.012;2023-04-21T06:21:39;13.75;;;10.05;;
33453;SDS011;39400;49.744;7.012;2023-04-21T06:27:33;9.63;;;7.50;;
33453;SDS011;39400;49.744;7.012;2023-04-21T06:29:58;10.77;;;7.72;;
33453;SDS011;39400;49.744;7.012;2023-04-21T06:32:23;9.43;;;6.75;;
33453;SDS011;39400;49.744;7.012;2023-04-21T06:34:49;9.30;;;7.47;;
33453;SDS011;39400;49.744;7.012;2023-04-21T06:37:14;8.07;;;6.35;;
33453;SDS011;39400;49.744;7.012;2023-04-21T06:39:39;9.75;;;5.80;;
33453;SDS011;39400;49.744;7.012;2023-04-21T06:42:04;7.40;;;5.05;;
33453;SDS011;39400;49.744;7.012;2023-04-21T06:44:36;7.63;;;5.53;;
33453;SDS011;39400;49.744;7.012;2023-04-21T06:47:02;8.45;;;5.78;;
33453;SDS011;39400;49.744;7.012;2023-04-21T06:49:27;7.45;;;5.03;;
33453;SDS011;39400;49.744;7.012;2023-04-21T06:51:52;6.03;;;4.72;;
33453;SDS011;39400;49.744;7.012;2023-04-21T06:54:17;7.50;;;5.60;;
33453;SDS011;39400;49.744;7.012;2023-04-21T06:56:43;6.25;;;4.70;;
33453;SDS011;39400;49.744;7.012;2023-04-21T06:59:08;9.13;;;5.20;;
33453;SDS011;39400;49.744;7.012;2023-04-21T07:01:34;9.88;;;6.75;;
33453;SDS011;39400;49.744;7.012;2023-04-21T07:03:59;8.93;;;6.47;;
33453;SDS011;39400;49.744;7.012;2023-04-21T07:06:25;8.55;;;6.28;;
33453;SDS011;39400;49.744;7.012;2023-04-21T07:08:50;7.68;;;5.82;;
33453;SDS011;39400;49.744;7.012;2023-04-21T07:11:16;8.57;;;6.13;;
33453;SDS011;39400;49.744;7.012;2023-04-21T07:13:41;9.25;;;6.20;;
33453;SDS011;39400;49.744;7.012;2023-04-21T07:16:06;8.88;;;6.40;;
33453;SDS011;39400;49.744;7.012;2023-04-21T07:18:31;8.93;;;6.53;;
33453;SDS011;39400;49.744;7.012;2023-04-21T07:20:57;9.23;;;6.53;;
33453;SDS011;39400;49.744;7.012;2023-04-21T07:23:22;7.85;;;5.57;;
33453;SDS011;39400;49.744;7.012;2023-04-21T07:25:47;9.73;;;7.07;;
33453;SDS011;39400;49.744;7.012;2023-04-21T07:28:13;9.00;;;7.10;;
33453;SDS011;39400;49.744;7.012;2023-04-21T07:30:38;8.02;;;5.93;;
33453;SDS011;39400;49.744;7.012;2023-04-21T07:33:03;9.80;;;5.78;;
33453;SDS011;39400;49.744;7.012;2023-04-21T07:35:29;10.45;;;5.88;;
33453;SDS011;39400;49.744;7.012;2023-04-21T07:37:54;8.82;;;6.07;;
33453;SDS011;39400;49.744;7.012;2023-04-21T07:40:19;8.80;;;5.85;;
33453;SDS011;39400;49.744;7.012;2023-04-21T07:42:44;8.63;;;6.30;;
33453;SDS011;39400;49.744;7.012;2023-04-21T07:45:10;9.98;;;6.00;;
33453;SDS011;39400;49.744;7.012;2023-04-21T07:47:36;7.88;;;6.03;;
33453;SDS011;39400;49.744;7.012;2023-04-21T07:50:01;8.70;;;6.30;;
33453;SDS011;39400;49.744;7.012;2023-04-21T07:52:27;10.23;;;6.30;;
33453;SDS011;39400;49.744;7.012;2023-04-21T07:54:52;9.23;;;5.72;;
33453;SDS011;39400;49.744;7.012;2023-04-21T07:57:17;8.18;;;6.07;;
33453;SDS011;39400;49.744;7.012;2023-04-21T07:59:43;8.50;;;5.85;;
33453;SDS011;39400;49.744;7.012;2023-04-21T08:02:08;9.27;;;6.20;;
33453;SDS011;39400;49.744;7.012;2023-04-21T08:04:34;8.63;;;6.13;;
33453;SDS011;39400;49.744;7.012;2023-04-21T08:06:59;10.27;;;6.43;;
33453;SDS011;39400;49.744;7.012;2023-04-21T08:09:25;9.20;;;5.80;;
33453;SDS011;39400;49.744;7.012;2023-04-21T08:11:50;7.75;;;5.72;;
33453;SDS011;39400;49.744;7.012;2023-04-21T08:14:16;11.25;;;7.55;;
33453;SDS011;39400;49.744;7.012;2023-04-21T08:16:41;10.93;;;7.70;;
33453;SDS011;39400;49.744;7.012;2023-04-21T08:19:07;9.27;;;6.35;;
33453;SDS011;39400;49.744;7.012;2023-04-21T08:21:33;9.93;;;6.97;;
33453;SDS011;39400;49.744;7.012;2023-04-21T08:23:59;10.82;;;6.57;;
33453;SDS011;39400;49.744;7.012;2023-04-21T08:26:24;10.75;;;7.10;;
33453;SDS011;39400;49.744;7.012;2023-04-21T08:28:50;9.35;;;6.32;;
33453;SDS011;39400;49.744;7.012;2023-04-21T08:31:16;9.20;;;6.70;;
33453;SDS011;39400;49.744;7.012;2023-04-21T08:33:42;9.55;;;7.05;;
33453;SDS011;39400;49.744;7.012;2023-04-21T08:36:08;11.00;;;7.18;;
33453;SDS011;39400;49.744;7.012;2023-04-21T08:38:33;10.60;;;7.90;;
33453;SDS011;39400;49.744;7.012;2023-04-21T08:40:58;9.95;;;7.00;;
33453;SDS011;39400;49.744;7.012;2023-04-21T08:43:24;13.93;;;7.35;;
33453;SDS011;39400;49.744;7.012;2023-04-21T08:45:50;9.73;;;7.22;;
33453;SDS011;39400;49.744;7.012;2023-04-21T08:48:16;10.07;;;7.28;;
33453;SDS011;39400;49.744;7.012;2023-04-21T08:50:43;9.20;;;7.05;;
33453;SDS011;39400;49.744;7.012;2023-04-21T08:53:10;9.45;;;6.43;;
33453;SDS011;39400;49.744;7.012;2023-04-21T08:55:35;13.55;;;7.68;;
33453;SDS011;39400;49.744;7.012;2023-04-21T08:58:04;10.77;;;7.40;;
33453;SDS011;39400;49.744;7.012;2023-04-21T09:00:29;10.30;;;7.05;;
33453;SDS011;39400;49.744;7.012;2023-04-21T09:02:55;10.68;;;6.85;;
33453;SDS011;39400;49.744;7.012;2023-04-21T09:05:31;11.45;;;6.85;;
33453;SDS011;39400;49.744;7.012;2023-04-21T09:08:08;11.48;;;8.80;;
33453;SDS011;39400;49.744;7.012;2023-04-21T09:10:41;10.45;;;6.88;;
33453;SDS011;39400;49.744;7.012;2023-04-21T09:13:08;8.73;;;6.50;;
33453;SDS011;39400;49.744;7.012;2023-04-21T09:15:39;10.25;;;6.15;;
33453;SDS011;39400;49.744;7.012;2023-04-21T09:18:12;11.20;;;7.60;;
33453;SDS011;39400;49.744;7.012;2023-04-21T09:20:49;11.50;;;7.63;;
33453;SDS011;39400;49.744;7.012;2023-04-21T09:23:16;10.95;;;7.75;;
33453;SDS011;39400;49.744;7.012;2023-04-21T09:25:43;14.48;;;7.32;;
33453;SDS011;39400;49.744;7.012;2023-04-21T09:28:12;11.77;;;7.22;;
33453;SDS011;39400;49.744;7.012;2023-04-21T09:30:39;10.30;;;6.95;;
33453;SDS011;39400;49.744;7.012;2023-04-21T09:33:06;14.25;;;7.20;;
33453;SDS011;39400;49.744;7.012;2023-04-21T09:35:33;10.65;;;6.88;;
33453;SDS011;39400;49.744;7.012;2023-04-21T09:38:00;11.07;;;8.32;;
33453;SDS011;39400;49.744;7.012;2023-04-21T09:40:26;12.75;;;9.15;;
33453;SDS011;39400;49.744;7.012;2023-04-21T09:42:53;13.00;;;7.57;;
33453;SDS011;39400;49.744;7.012;2023-04-21T09:45:18;11.30;;;8.32;;
33453;SDS011;39400;49.744;7.012;2023-04-21T09:47:44;14.77;;;8.88;;
33453;SDS011;39400;49.744;7.012;2023-04-21T09:50:14;10.40;;;7.88;;
33453;SDS011;39400;49.744;7.012;2023-04-21T09:52:40;11.27;;;7.05;;
33453;SDS011;39400;49.744;7.012;2023-04-21T09:55:11;9.43;;;6.82;;
33453;SDS011;39400;49.744;7.012;2023-04-21T09:57:37;9.10;;;6.80;;
33453;SDS011;39400;49.744;7.012;2023-04-21T10:00:05;10.90;;;7.38;;
33453;SDS011;39400;49.744;7.012;2023-04-21T10:02:32;8.90;;;6.00;;
33453;SDS011;39400;49.744;7.012;2023-04-21T10:04:59;6.85;;;4.95;;
33453;SDS011;39400;49.744;7.012;2023-04-21T10:07:24;6.72;;;4.78;;
33453;SDS011;39400;49.744;7.012;2023-04-21T10:09:50;8.85;;;5.47;;
33453;SDS011;39400;49.744;7.012;2023-04-21T10:12:18;10.25;;;6.88;;
33453;SDS011;39400;49.744;7.012;2023-04-21T10:14:43;11.02;;;7.70;;
33453;SDS011;39400;49.744;7.012;2023-04-21T10:17:09;9.98;;;5.85;;
33453;SDS011;39400;49.744;7.012;2023-04-21T10:19:35;6.82;;;3.88;;
33453;SDS011;39400;49.744;7.012;2023-04-21T10:22:02;6.03;;;3.25;;
33453;SDS011;39400;49.744;7.012;2023-04-21T10:24:30;5.13;;;3.20;;
33453;SDS011;39400;49.744;7.012;2023-04-21T10:26:56;9.60;;;5.55;;
33453;SDS011;39400;49.744;7.012;2023-04-21T10:29:27;7.90;;;5.20;;
33453;SDS011;39400;49.744;7.012;2023-04-21T10:31:54;5.95;;;4.03;;
33453;SDS011;39400;49.744;7.012;2023-04-21T10:41:55;6.07;;;2.92;;
33453;SDS011;39400;49.744;7.012;2023-04-21T10:44:42;4.22;;;3.03;;
33453;SDS011;39400;49.744;7.012;2023-04-21T10:47:08;4.55;;;3.03;;
33453;SDS011;39400;49.744;7.012;2023-04-21T10:49:37;5.43;;;3.45;;
33453;SDS011;39400;49.744;7.012;2023-04-21T10:52:04;6.07;;;3.83;;
33453;SDS011;39400;49.744;7.012;2023-04-21T10:57:13;7.28;;;3.67;;
33453;SDS011;39400;49.744;7.012;2023-04-21T10:59:39;5.68;;;3.92;;
33453;SDS011;39400;49.744;7.012;2023-04-21T11:02:06;4.53;;;3.05;;
33453;SDS011;39400;49.744;7.012;2023-04-21T11:04:32;5.05;;;2.88;;
33453;SDS011;39400;49.744;7.012;2023-04-21T11:07:05;5.05;;;3.00;;
33453;SDS011;39400;49.744;7.012;2023-04-21T11:09:30;5.72;;;3.10;;
33453;SDS011;39400;49.744;7.012;2023-04-21T11:11:59;3.75;;;2.45;;
33453;SDS011;39400;49.744;7.012;2023-04-21T11:14:29;2.42;;;1.90;;
33453;SDS011;39400;49.744;7.012;2023-04-21T11:16:55;3.10;;;2.10;;
33453;SDS011;39400;49.744;7.012;2023-04-21T11:19:20;4.00;;;2.28;;
33453;SDS011;39400;49.744;7.012;2023-04-21T11:21:47;4.68;;;3.15;;
33453;SDS011;39400;49.744;7.012;2023-04-21T11:24:13;4.00;;;3.00;;
33453;SDS011;39400;49.744;7.012;2023-04-21T11:26:38;5.22;;;2.80;;
33453;SDS011;39400;49.744;7.012;2023-04-21T11:29:04;6.95;;;3.45;;
33453;SDS011;39400;49.744;7.012;2023-04-21T11:31:30;4.55;;;2.67;;
33453;SDS011;39400;49.744;7.012;2023-04-21T11:33:57;6.80;;;4.18;;
33453;SDS011;39400;49.744;7.012;2023-04-21T11:36:23;5.13;;;3.42;;
33453;SDS011;39400;49.744;7.012;2023-04-21T11:38:48;7.13;;;3.67;;
33453;SDS011;39400;49.744;7.012;2023-04-21T11:41:20;5.45;;;3.42;;
33453;SDS011;39400;49.744;7.012;2023-04-21T11:43:49;4.60;;;3.53;;
33453;SDS011;39400;49.744;7.012;2023-04-21T11:48:58;4.50;;;3.30;;
33453;SDS011;39400;49.744;7.012;2023-04-21T11:51:24;6.60;;;3.58;;
33453;SDS011;39400;49.744;7.012;2023-04-21T11:53:50;4.88;;;3.15;;
33453;SDS011;39400;49.744;7.012;2023-04-21T11:56:16;5.15;;;3.55;;
33453;SDS011;39400;49.744;7.012;2023-04-21T11:58:42;4.28;;;3.08;;
33453;SDS011;39400;49.744;7.012;2023-04-21T12:01:07;4.05;;;2.90;;
33453;SDS011;39400;49.744;7.012;2023-04-21T12:03:33;3.47;;;2.28;;
33453;SDS011;39400;49.744;7.012;2023-04-21T12:05:58;3.42;;;2.92;;
33453;SDS011;39400;49.744;7.012;2023-04-21T12:08:27;4.30;;;2.80;;
33453;SDS011;39400;49.744;7.012;2023-04-21T12:10:53;4.45;;;2.90;;
33453;SDS011;39400;49.744;7.012;2023-04-21T12:13:22;2.97;;;2.38;;
33453;SDS011;39400;49.744;7.012;2023-04-21T12:15:47;3.92;;;2.97;;
33453;SDS011;39400;49.744;7.012;2023-04-21T12:18:13;3.85;;;2.70;;
33453;SDS011;39400;49.744;7.012;2023-04-21T12:20:38;3.13;;;1.98;;
33453;SDS011;39400;49.744;7.012;2023-04-21T12:23:13;5.72;;;2.50;;
33453;SDS011;39400;49.744;7.012;2023-04-21T12:27:11;2.63;;;1.95;;
33453;SDS011;39400;49.744;7.012;2023-04-21T12:29:38;4.30;;;2.60;;
33453;SDS011;39400;49.744;7.012;2023-04-21T12:32:04;2.90;;;2.10;;
33453;SDS011;39400;49.744;7.012;2023-04-21T12:34:30;2.70;;;2.10;;
33453;SDS011;39400;49.744;7.012;2023-04-21T12:36:55;3.03;;;2.00;;
33453;SDS011;39400;49.744;7.012;2023-04-21T12:39:20;3.83;;;2.00;;
33453;SDS011;39400;49.744;7.012;2023-04-21T12:41:45;2.50;;;1.52;;
33453;SDS011;39400;49.744;7.012;2023-04-21T12:44:11;3.17;;;1.88;;
33453;SDS011;39400;49.744;7.012;2023-04-21T12:46:37;2.45;;;1.50;;
33453;SDS011;39400;49.744;7.012;2023-04-21T12:49:02;4.88;;;2.10;;
33453;SDS011;39400;49.744;7.012;2023-04-21T12:51:27;3.40;;;1.35;;
33453;SDS011;39400;49.744;7.012;2023-04-21T12:53:53;2.63;;;1.38;;
33453;SDS011;39400;49.744;7.012;2023-04-21T12:56:19;4.47;;;1.90;;
33453;SDS011;39400;49.744;7.012;2023-04-21T12:58:44;2.55;;;1.60;;
33453;SDS011;39400;49.744;7.012;2023-04-21T13:01:09;2.53;;;1.50;;
33453;SDS011;39400;49.744;7.012;2023-04-21T13:03:35;2.58;;;1.58;;
33453;SDS011;39400;49.744;7.012;2023-04-21T13:06:00;1.70;;;1.40;;
33453;SDS011;39400;49.744;7.012;2023-04-21T13:08:25;2.03;;;1.30;;
33453;SDS011;39400;49.744;7.012;2023-04-21T13:10:51;2.92;;;1.85;;
33453;SDS011;39400;49.744;7.012;2023-04-21T13:13:16;5.47;;;1.40;;
33453;SDS011;39400;49.744;7.012;2023-04-21T13:15:41;3.45;;;1.20;;
33453;SDS011;39400;49.744;7.012;2023-04-21T13:18:07;1.40;;;1.13;;
33453;SDS011;39400;49.744;7.012;2023-04-21T13:20:32;4.15;;;1.35;;
33453;SDS011;39400;49.744;7.012;2023-04-21T13:22:57;1.83;;;1.45;;
33453;SDS011;39400;49.744;7.012;2023-04-21T13:25:23;4.03;;;1.60;;
33453;SDS011;39400;49.744;7.012;2023-04-21T13:27:48;3.00;;;1.40;;
33453;SDS011;39400;49.744;7.012;2023-04-21T13:30:14;4.07;;;1.63;;
33453;SDS011;39400;49.744;7.012;2023-04-21T13:32:40;3.28;;;1.80;;
33453;SDS011;39400;49.744;7.012;2023-04-21T13:35:06;1.90;;;1.08;;
33453;SDS011;39400;49.744;7.012;2023-04-21T13:37:31;2.20;;;1.70;;
33453;SDS011;39400;49.744;7.012;2023-04-21T13:39:56;2.45;;;1.42;;
33453;SDS011;39400;49.744;7.012;2023-04-21T13:42:22;1.95;;;1.42;;
33453;SDS011;39400;49.744;7.012;2023-04-21T13:45:05;2.92;;;1.85;;
33453;SDS011;39400;49.744;7.012;2023-04-21T13:47:52;2.78;;;1.45;;
33453;SDS011;39400;49.744;7.012;2023-04-21T13:50:17;1.20;;;1.00;;
33453;SDS011;39400;49.744;7.012;2023-04-21T13:52:43;3.50;;;1.40;;
33453;SDS011;39400;49.744;7.012;2023-04-21T13:55:08;3.85;;;1.70;;
33453;SDS011;39400;49.744;7.012;2023-04-21T13:57:34;1.67;;;0.95;;
33453;SDS011;39400;49.744;7.012;2023-04-21T13:59:59;2.40;;;1.00;;
33453;SDS011;39400;49.744;7.012;2023-04-21T14:02:24;1.25;;;1.05;;
33453;SDS011;39400;49.744;7.012;2023-04-21T14:04:50;0.88;;;0.88;;
33453;SDS011;39400;49.744;7.012;2023-04-21T14:07:16;1.90;;;1.10;;
33453;SDS011;39400;49.744;7.012;2023-04-21T14:09:42;2.75;;;1.20;;
33453;SDS011;39400;49.744;7.012;2023-04-21T14:12:07;1.70;;;1.35;;
33453;SDS011;39400;49.744;7.012;2023-04-21T14:14:33;1.65;;;1.17;;
33453;SDS011;39400;49.744;7.012;2023-04-21T14:16:58;4.10;;;1.88;;
33453;SDS011;39400;49.744;7.012;2023-04-21T14:19:23;3.08;;;1.60;;
33453;SDS011;39400;49.744;7.012;2023-04-21T14:21:48;2.55;;;1.88;;
33453;SDS011;39400;49.744;7.012;2023-04-21T14:24:14;3.05;;;2.08;;
33453;SDS011;39400;49.744;7.012;2023-04-21T14:26:39;3.28;;;1.90;;
33453;SDS011;39400;49.744;7.012;2023-04-21T14:29:04;2.80;;;1.90;;
33453;SDS011;39400;49.744;7.012;2023-04-21T14:31:30;4.38;;;2.42;;
33453;SDS011;39400;49.744;7.012;2023-04-21T14:33:55;2.50;;;1.95;;
33453;SDS011;39400;49.744;7.012;2023-04-21T14:36:20;5.32;;;2.17;;
33453;SDS011;39400;49.744;7.012;2023-04-21T14:38:46;2.10;;;1.75;;
33453;SDS011;39400;49.744;7.012;2023-04-21T14:41:12;2.85;;;2.13;;
33453;SDS011;39400;49.744;7.012;2023-04-21T14:43:37;2.42;;;1.90;;
33453;SDS011;39400;49.744;7.012;2023-04-21T14:46:02;3.58;;;2.50;;
33453;SDS011;39400;49.744;7.012;2023-04-21T14:48:28;2.78;;;2.45;;